Terminal Aerodrome Forecast
Issued by NWS

Home | Current Version | Previous Version | Text Only | Print | Product List | Glossary On
Versions: 1 2 3 4 5 6 7 8 9 10 11 12 13 14 15 16 17 18 19 20 21 22 23 24 25 26 27 28 29 30
000
FTUS46 KMTR 232339
TAFSFO
TAF
KSFO 232339Z 2400/2506 29019KT P6SM FEW004
     FM240300 29015KT P6SM SCT008
     FM240500 28008KT P6SM SCT008 OVC010
     FM241700 27008KT P6SM SCT010
     FM242200 28014KT P6SM FEW012
     FM250300 28009KT P6SM FEW012=

USA.gov is the U.S. government's official web portal to all federal, state and local government web resources and services.